Shawbury (EGOS)

METAR

EGOS 222150Z AUTO 09002KT 9999 FEW028/// BKN046/// 05/03 Q1010

QNH
1010
TEMP
5 °C
TAF

TAF TAF EGOS 171634Z 1718/1821 CNL